Time;durP1;ratioP1;P1;durP2;ratioP2;P2;SDS_P1;SDS_P2;PMS_P1;PMS_P2;Temp;Humidity;BMP_temperature;BMP_pressure;BME280_temperature;BME280_humidity;BME280_pressure;Samples;Min_cycle;Max_cycle;Signal;HPM_P1;HPM_P2
2021/07/11 00:01:05;;;;;;;3.20;2.90;;;16.70;99.90;;;;;;6273457;22;20211;-92
2021/07/11 00:03:32;;;;;;;3.50;2.63;;;16.80;99.90;;;;;;6273660;22;20236;-93
2021/07/11 00:09:27;;;;;;;4.50;2.10;;;16.70;99.90;;;;;;6232523;22;20190;-91
2021/07/11 00:11:54;;;;;;;2.20;2.00;;;16.70;99.90;;;;;;6272636;22;20206;-92
2021/07/11 00:14:21;;;;;;;2.72;1.80;;;16.80;99.90;;;;;;6274768;22;20173;-92
2021/07/11 00:16:48;;;;;;;2.33;2.13;;;16.70;99.90;;;;;;6272919;22;20236;-92
2021/07/11 00:19:15;;;;;;;2.80;2.50;;;16.70;99.90;;;;;;6276176;22;20195;-92
2021/07/11 00:21:43;;;;;;;3.22;2.92;;;16.70;99.90;;;;;;6275782;22;20200;-92
2021/07/11 00:24:10;;;;;;;2.83;2.63;;;16.70;99.90;;;;;;6277884;22;20508;-91
2021/07/11 00:26:37;;;;;;;2.70;2.50;;;16.60;99.90;;;;;;6275664;22;20667;-92
2021/07/11 00:29:04;;;;;;;3.60;2.50;;;16.60;99.90;;;;;;6276676;22;20633;-92
2021/07/11 00:34:13;;;;;;;2.70;2.50;;;16.40;99.90;;;;;;6277258;22;20172;-92
2021/07/11 00:36:40;;;;;;;2.92;2.72;;;16.40;99.90;;;;;;6278548;22;20228;-91
2021/07/11 00:39:08;;;;;;;3.45;2.38;;;16.30;99.90;;;;;;6278210;22;20711;-92
2021/07/11 00:41:38;;;;;;;2.78;2.50;;;16.30;99.90;;;;;;6277598;22;20177;-92
2021/07/11 00:46:47;;;;;;;3.58;2.05;;;16.10;99.90;;;;;;6275456;22;20176;-92
2021/07/11 00:49:15;;;;;;;2.40;2.20;;;16.10;99.90;;;;;;6278907;22;20220;-92
2021/07/11 00:57:07;;;;;;;2.30;2.10;;;16.00;99.90;;;;;;6268274;22;20251;-92
2021/07/11 01:02:18;;;;;;;2.28;2.08;;;15.90;99.90;;;;;;6276092;22;20211;-91
2021/07/11 01:04:51;;;;;;;2.50;2.05;;;15.90;99.90;;;;;;6277705;22;20171;-92
2021/07/11 01:07:26;;;;;;;2.25;1.92;;;15.90;99.90;;;;;;6276352;22;20464;-93
2021/07/11 01:09:58;;;;;;;5.90;2.28;;;15.90;99.90;;;;;;6276221;22;20172;-92
2021/07/11 01:12:29;;;;;;;2.00;1.90;;;15.90;99.90;;;;;;6275191;22;20228;-92
2021/07/11 01:15:00;;;;;;;2.85;2.10;;;15.90;99.90;;;;;;6276675;22;20214;-92
2021/07/11 01:17:28;;;;;;;2.08;1.90;;;15.80;99.90;;;;;;6276014;22;20211;-92
2021/07/11 01:20:04;;;;;;;4.82;2.30;;;15.80;99.90;;;;;;6276772;22;20173;-91
2021/07/11 01:22:39;;;;;;;2.10;2.00;;;15.80;99.90;;;;;;6275983;22;20706;-92
2021/07/11 01:27:53;;;;;;;2.30;2.10;;;15.80;99.90;;;;;;6258454;22;20283;-91
2021/07/11 01:30:20;;;;;;;2.85;2.30;;;15.90;99.90;;;;;;6277563;22;20203;-92
2021/07/11 01:32:48;;;;;;;4.55;2.15;;;15.80;99.90;;;;;;6276168;22;20544;-92
2021/07/11 01:35:15;;;;;;;2.30;2.10;;;15.80;99.90;;;;;;6276833;22;20658;-93
2021/07/11 01:37:43;;;;;;;2.35;2.00;;;15.90;99.90;;;;;;6275631;22;20513;-93
2021/07/11 01:40:11;;;;;;;3.85;2.20;;;15.80;99.90;;;;;;6276804;22;20208;-92
2021/07/11 01:42:39;;;;;;;2.00;1.90;;;15.90;99.90;;;;;;6275467;22;20287;-91
2021/07/11 01:47:51;;;;;;;2.70;2.03;;;16.00;99.90;;;;;;6234818;22;20204;-92
2021/07/11 01:50:18;;;;;;;1.90;1.80;;;16.00;99.90;;;;;;6277178;22;20236;-92
2021/07/11 01:52:46;;;;;;;3.10;2.05;;;16.00;99.90;;;;;;6276033;22;20699;-91
2021/07/11 01:55:14;;;;;;;2.00;1.90;;;16.00;99.90;;;;;;6277018;22;20229;-92
2021/07/11 01:57:41;;;;;;;3.53;2.10;;;16.00;99.90;;;;;;6275477;22;20704;-91
2021/07/11 02:00:14;;;;;;;2.38;2.05;;;16.00;99.90;;;;;;6276546;22;20263;-91
2021/07/11 02:02:42;;;;;;;2.08;1.90;;;16.00;99.90;;;;;;6275424;22;20271;-92
2021/07/11 02:05:11;;;;;;;2.55;2.00;;;16.00;99.90;;;;;;6275807;22;20497;-92
2021/07/11 02:07:39;;;;;;;3.17;2.05;;;15.90;99.90;;;;;;6275354;22;20291;-92
2021/07/11 02:10:08;;;;;;;2.25;1.63;;;16.00;99.90;;;;;;6276521;22;20256;-92
2021/07/11 02:12:42;;;;;;;2.95;1.70;;;15.90;99.40;;;;;;6274256;22;20204;-92
2021/07/11 02:15:11;;;;;;;1.80;1.70;;;15.80;99.70;;;;;;6276019;22;20165;-92
2021/07/11 02:20:24;;;;;;;2.25;1.50;;;15.70;99.20;;;;;;6255240;22;20690;-92
2021/07/11 02:22:51;;;;;;;1.50;1.40;;;15.80;99.70;;;;;;6276919;22;20279;-92
2021/07/11 02:25:21;;;;;;;4.38;1.50;;;15.80;99.90;;;;;;6277082;22;20258;-92
2021/07/11 02:27:50;;;;;;;2.28;1.50;;;15.80;99.90;;;;;;6276307;22;20291;-92
2021/07/11 02:33:05;;;;;;;2.03;1.40;;;15.80;99.80;;;;;;6272608;22;20207;-92
2021/07/11 02:38:21;;;;;;;1.40;1.30;;;15.80;99.70;;;;;;6259972;22;20213;-93
2021/07/11 02:40:48;;;;;;;1.35;1.25;;;15.80;99.70;;;;;;6279327;22;20255;-92
2021/07/11 02:43:17;;;;;;;1.52;1.30;;;15.80;99.70;;;;;;6278643;22;20664;-92
2021/07/11 02:48:28;;;;;;;1.30;1.20;;;15.80;99.80;;;;;;6261457;22;20942;-92
2021/07/11 02:50:56;;;;;;;2.08;1.40;;;15.70;99.30;;;;;;6279575;22;20230;-92
2021/07/11 02:53:24;;;;;;;1.77;1.17;;;15.60;99.00;;;;;;6278709;22;20586;-93
2021/07/11 02:58:36;;;;;;;1.30;1.20;;;15.70;99.50;;;;;;6261474;22;20253;-92
2021/07/11 03:06:55;;;;;;;1.40;1.30;;;15.50;99.10;;;;;;6252102;22;20196;-93
2021/07/11 03:09:22;;;;;;;1.63;1.20;;;15.60;99.00;;;;;;6282584;22;20181;-93
2021/07/11 03:11:49;;;;;;;1.30;1.20;;;15.70;98.70;;;;;;6279946;22;20204;-92
2021/07/11 03:19:44;;;;;;;1.30;1.20;;;15.50;98.00;;;;;;6252081;22;20171;-93
2021/07/11 03:22:11;;;;;;;1.30;1.20;;;15.50;98.30;;;;;;6278100;22;20708;-93
2021/07/11 03:24:38;;;;;;;1.58;1.10;;;15.50;98.00;;;;;;6277455;22;20196;-93
2021/07/11 03:27:05;;;;;;;1.88;1.30;;;15.50;97.50;;;;;;6278145;22;20200;-92
2021/07/11 03:38:16;;;;;;;1.38;1.08;;;15.50;98.40;;;;;;6271989;22;20200;-93
2021/07/11 03:40:45;;;;;;;1.23;1.13;;;15.50;98.30;;;;;;6283224;22;20197;-93
2021/07/11 03:43:14;;;;;;;1.10;1.10;;;15.60;98.60;;;;;;6282909;22;20204;-93
2021/07/11 03:56:57;;;;;;;2.65;1.20;;;15.40;97.90;;;;;;6235690;22;20196;-93
2021/07/11 03:59:25;;;;;;;3.40;1.10;;;15.30;98.20;;;;;;6278124;22;20275;-94
2021/07/11 04:01:53;;;;;;;1.63;0.90;;;15.30;98.20;;;;;;6277968;22;20227;-94
2021/07/11 04:07:05;;;;;;;1.30;1.20;;;15.30;98.70;;;;;;6236065;22;20188;-94
2021/07/11 04:09:32;;;;;;;1.73;1.02;;;15.20;98.30;;;;;;6278002;22;20192;-93
2021/07/11 04:11:59;;;;;;;1.00;1.00;;;15.10;98.80;;;;;;6277076;22;20267;-93
2021/07/11 04:14:26;;;;;;;1.20;1.10;;;15.20;99.00;;;;;;6276965;22;20711;-92
2021/07/11 04:16:57;;;;;;;1.33;1.23;;;15.20;99.20;;;;;;6275377;22;20280;-93
2021/07/11 04:22:15;;;;;;;1.25;1.15;;;15.20;99.60;;;;;;6251072;22;20208;-93
2021/07/11 04:27:26;;;;;;;1.00;1.00;;;15.20;99.00;;;;;;6246476;22;20203;-93
2021/07/11 04:32:35;;;;;;;1.30;1.20;;;15.20;98.70;;;;;;6231910;22;20200;-93
2021/07/11 04:37:48;;;;;;;1.58;1.30;;;15.30;99.20;;;;;;6273667;22;20335;-93
2021/07/11 04:40:16;;;;;;;1.20;1.10;;;15.20;98.90;;;;;;6275210;22;20255;-94
2021/07/11 04:42:44;;;;;;;2.92;1.30;;;15.10;99.10;;;;;;6274140;22;20216;-93
2021/07/11 04:45:11;;;;;;;1.20;1.10;;;15.10;99.40;;;;;;6276277;22;20179;-94
2021/07/11 04:47:38;;;;;;;2.00;1.15;;;15.10;99.20;;;;;;6275341;22;20236;-93
2021/07/11 04:50:08;;;;;;;1.30;1.20;;;15.10;99.40;;;;;;6278120;22;20260;-92
2021/07/11 04:52:37;;;;;;;0.90;0.90;;;15.10;99.60;;;;;;6278836;22;20594;-93
2021/07/11 04:55:22;;;;;;;1.38;1.27;;;15.20;99.60;;;;;;6260715;22;20183;-93
2021/07/11 04:57:49;;;;;;;1.20;1.10;;;15.30;99.20;;;;;;6277546;22;20279;-93
2021/07/11 05:02:57;;;;;;;2.70;1.00;;;15.30;98.50;;;;;;6243284;22;20203;-93
2021/07/11 05:05:26;;;;;;;1.25;1.15;;;15.30;98.90;;;;;;6281167;22;20200;-93
2021/07/11 05:07:53;;;;;;;1.42;1.10;;;15.30;98.90;;;;;;6197585;22;20204;-93
2021/07/11 05:10:20;;;;;;;1.50;1.30;;;15.20;98.60;;;;;;6250537;22;20204;-93
2021/07/11 05:12:48;;;;;;;1.17;1.05;;;15.20;99.10;;;;;;6280873;22;20200;-93
2021/07/11 05:15:15;;;;;;;1.38;1.10;;;15.20;99.20;;;;;;6280743;22;20208;-93
2021/07/11 05:18:02;;;;;;;2.55;1.20;;;15.20;99.40;;;;;;6180586;22;1113398;-93
2021/07/11 05:23:34;;;;;;;1.63;0.90;;;15.30;99.50;;;;;;6284044;22;20176;-94
2021/07/11 05:26:01;;;;;;;1.42;1.00;;;15.40;99.20;;;;;;6285289;22;20208;-92
2021/07/11 05:28:28;;;;;;;2.10;1.10;;;15.40;99.60;;;;;;6257450;22;20566;-92
2021/07/11 05:30:55;;;;;;;2.05;1.10;;;15.50;99.50;;;;;;6288680;22;20184;-93
2021/07/11 05:33:22;;;;;;;1.35;1.00;;;15.60;99.00;;;;;;6288524;22;20204;-93
2021/07/11 05:38:31;;;;;;;2.15;1.00;;;15.60;98.80;;;;;;6253711;22;20207;-93
2021/07/11 05:40:58;;;;;;;1.10;1.00;;;15.60;98.70;;;;;;6288870;22;20177;-93
2021/07/11 05:43:25;;;;;;;1.67;1.02;;;15.60;98.80;;;;;;6287282;22;20204;-93
2021/07/11 05:45:52;;;;;;;2.60;1.10;;;15.70;98.80;;;;;;6288016;22;20173;-93
2021/07/11 05:48:19;;;;;;;1.23;1.13;;;15.70;98.30;;;;;;6286528;22;20216;-93
2021/07/11 05:50:46;;;;;;;1.00;1.00;;;15.80;98.80;;;;;;6287650;22;20201;-92
2021/07/11 05:53:14;;;;;;;0.90;0.90;;;15.70;98.20;;;;;;6286551;22;20207;-92
2021/07/11 05:56:14;;;;;;;0.77;0.77;;;15.70;97.90;;;;;;6286631;22;20211;-92
2021/07/11 05:58:41;;;;;;;1.25;1.02;;;15.80;98.00;;;;;;6286131;22;20204;-91
2021/07/11 06:01:07;;;;;;;1.00;0.90;;;16.00;97.70;;;;;;6287031;22;20172;-93
2021/07/11 06:03:35;;;;;;;2.88;0.90;;;16.10;97.20;;;;;;6286078;22;20207;-93
2021/07/11 06:06:02;;;;;;;1.00;0.93;;;16.00;97.10;;;;;;6287057;22;20207;-93
2021/07/11 06:11:12;;;;;;;1.23;0.90;;;16.10;97.20;;;;;;6276824;22;20169;-93
2021/07/11 06:13:38;;;;;;;1.02;0.98;;;16.20;97.20;;;;;;6285173;22;20262;-93
2021/07/11 06:16:06;;;;;;;1.13;1.00;;;16.20;97.20;;;;;;6285050;22;20177;-93
2021/07/11 06:18:33;;;;;;;2.05;1.00;;;16.30;97.20;;;;;;6281957;22;20200;-93
2021/07/11 06:21:00;;;;;;;1.70;1.13;;;16.40;97.20;;;;;;6281922;22;20633;-93
2021/07/11 06:23:26;;;;;;;0.90;0.90;;;16.40;97.20;;;;;;6280769;22;20678;-93
2021/07/11 06:25:55;;;;;;;1.33;1.23;;;16.40;97.20;;;;;;6281490;22;20212;-93
2021/07/11 06:28:22;;;;;;;2.15;1.00;;;16.50;97.00;;;;;;6279765;22;20288;-93
2021/07/11 06:30:51;;;;;;;1.73;0.95;;;16.50;97.30;;;;;;6278641;22;20211;-93
2021/07/11 06:33:19;;;;;;;1.20;1.00;;;16.50;97.20;;;;;;6278227;22;20265;-93
2021/07/11 06:36:11;;;;;;;1.55;1.20;;;16.50;97.20;;;;;;6230321;22;20172;-92
2021/07/11 06:39:00;;;;;;;1.52;0.98;;;16.50;97.00;;;;;;6237100;22;20196;-94
2021/07/11 06:44:09;;;;;;;1.00;1.00;;;16.50;97.00;;;;;;6242846;22;20177;-93
2021/07/11 06:46:35;;;;;;;1.38;1.27;;;16.50;96.80;;;;;;6276047;22;20232;-93
2021/07/11 06:49:02;;;;;;;0.98;0.93;;;16.50;96.90;;;;;;6276085;22;20216;-93
2021/07/11 06:51:29;;;;;;;2.08;1.00;;;16.40;97.20;;;;;;6275270;22;20555;-92
2021/07/11 06:53:56;;;;;;;1.20;1.10;;;16.40;97.20;;;;;;6274580;22;20298;-93
2021/07/11 06:56:23;;;;;;;1.08;1.00;;;16.50;97.20;;;;;;6276105;22;20676;-92
2021/07/11 07:01:32;;;;;;;1.38;1.00;;;16.70;96.10;;;;;;6271463;22;20176;-92
2021/07/11 07:03:59;;;;;;;1.40;1.20;;;16.80;95.90;;;;;;6272975;22;20259;-92
2021/07/11 07:06:26;;;;;;;1.25;1.15;;;16.90;95.40;;;;;;6273131;22;20571;-93
2021/07/11 07:08:53;;;;;;;1.20;1.10;;;17.00;95.20;;;;;;6273146;22;20204;-92
2021/07/11 07:11:19;;;;;;;2.10;1.20;;;17.10;95.00;;;;;;6275508;22;20206;-93
2021/07/11 07:13:46;;;;;;;2.45;1.30;;;17.10;95.00;;;;;;6273890;22;20204;-93
2021/07/11 07:16:14;;;;;;;1.40;1.30;;;17.30;95.20;;;;;;6274309;22;20212;-93
2021/07/11 07:18:42;;;;;;;0.90;0.90;;;17.30;95.00;;;;;;6277063;22;20648;-89
2021/07/11 07:21:08;;;;;;;1.10;1.00;;;17.40;94.80;;;;;;6275075;22;20187;-89
2021/07/11 07:23:35;;;;;;;1.00;1.00;;;17.40;94.90;;;;;;6273145;22;20280;-90
2021/07/11 07:26:02;;;;;;;3.13;1.20;;;17.50;94.50;;;;;;6273408;22;20542;-90
2021/07/11 07:28:29;;;;;;;1.27;1.17;;;17.50;94.80;;;;;;6272875;22;20766;-90
2021/07/11 07:30:56;;;;;;;1.48;1.20;;;17.60;93.90;;;;;;6274184;22;20177;-90
2021/07/11 07:33:25;;;;;;;2.00;1.30;;;17.60;93.90;;;;;;6273447;22;20724;-89
2021/07/11 07:35:52;;;;;;;4.40;1.00;;;17.70;93.20;;;;;;6276436;22;20203;-91
2021/07/11 07:38:19;;;;;;;1.20;1.10;;;17.60;93.00;;;;;;6270888;22;20275;-91
2021/07/11 07:40:46;;;;;;;1.85;1.40;;;17.50;93.70;;;;;;6273904;22;20165;-91
2021/07/11 07:43:14;;;;;;;1.70;1.42;;;17.50;93.80;;;;;;6271774;22;20246;-91
2021/07/11 07:45:42;;;;;;;2.65;1.67;;;17.40;94.60;;;;;;6271872;22;20172;-92
2021/07/11 07:48:09;;;;;;;1.70;1.60;;;17.40;94.70;;;;;;6272299;22;20238;-91
2021/07/11 07:50:38;;;;;;;1.60;1.50;;;17.30;94.30;;;;;;6273978;22;20479;-92
2021/07/11 07:53:05;;;;;;;1.45;1.35;;;17.40;94.50;;;;;;6273180;22;20211;-92
2021/07/11 07:55:32;;;;;;;2.60;1.30;;;17.40;94.20;;;;;;6273299;22;20199;-92
2021/07/11 07:58:00;;;;;;;1.40;1.30;;;17.40;94.20;;;;;;6271731;22;20236;-91
2021/07/11 08:00:27;;;;;;;1.48;1.38;;;17.30;94.30;;;;;;6272594;22;20283;-92
2021/07/11 08:02:54;;;;;;;1.55;1.45;;;17.20;94.70;;;;;;6272234;22;20279;-92
2021/07/11 08:05:21;;;;;;;2.45;1.70;;;17.20;95.90;;;;;;6272055;22;20259;-92
2021/07/11 08:07:50;;;;;;;1.65;1.50;;;17.30;95.70;;;;;;6273941;22;20287;-92
2021/07/11 08:10:17;;;;;;;1.48;1.38;;;17.30;95.40;;;;;;6274514;22;20700;-90
2021/07/11 08:12:44;;;;;;;2.65;1.65;;;17.40;95.00;;;;;;6272546;22;20228;-91
2021/07/11 08:15:16;;;;;;;2.53;1.67;;;17.50;94.40;;;;;;6274322;22;20242;-91
2021/07/11 08:17:44;;;;;;;1.83;1.73;;;17.50;94.70;;;;;;6271920;22;20668;-90
2021/07/11 08:20:12;;;;;;;2.45;1.73;;;17.40;94.80;;;;;;6271590;22;20176;-91
2021/07/11 08:22:39;;;;;;;2.13;1.77;;;17.40;95.00;;;;;;6271503;22;20204;-91
2021/07/11 08:25:10;;;;;;;1.85;1.70;;;17.20;95.00;;;;;;6272667;22;20204;-91
2021/07/11 08:27:38;;;;;;;2.30;1.55;;;17.10;95.80;;;;;;6272606;22;20243;-92
2021/07/11 08:30:06;;;;;;;2.05;1.70;;;17.10;95.50;;;;;;6272637;22;20255;-91
2021/07/11 08:32:33;;;;;;;1.92;1.80;;;17.10;95.50;;;;;;6274014;22;20204;-90
2021/07/11 08:35:00;;;;;;;2.13;1.77;;;17.00;95.80;;;;;;6273731;22;20256;-90
2021/07/11 08:37:28;;;;;;;1.60;1.50;;;17.10;96.60;;;;;;6274805;22;20279;-90
2021/07/11 08:39:55;;;;;;;2.00;1.73;;;17.10;96.60;;;;;;6276683;22;20197;-90
2021/07/11 08:42:24;;;;;;;2.15;1.80;;;17.20;96.50;;;;;;6276521;22;20727;-91
2021/07/11 08:44:51;;;;;;;1.90;1.80;;;17.30;96.30;;;;;;6273815;22;20168;-92
2021/07/11 08:47:18;;;;;;;2.58;2.00;;;17.40;96.30;;;;;;6272425;22;20308;-91
2021/07/11 08:49:47;;;;;;;2.63;2.00;;;17.60;96.50;;;;;;6273272;22;20196;-94
2021/07/11 08:52:16;;;;;;;3.03;1.80;;;17.70;95.90;;;;;;6273666;22;20338;-91
2021/07/11 08:54:43;;;;;;;4.03;1.85;;;17.90;95.30;;;;;;6273062;22;20240;-92
2021/07/11 08:57:12;;;;;;;2.20;2.00;;;18.10;94.90;;;;;;6272526;22;20750;-92
2021/07/11 08:59:42;;;;;;;2.03;1.83;;;18.30;94.50;;;;;;6274398;22;20280;-91
2021/07/11 09:02:11;;;;;;;2.08;1.88;;;18.50;94.00;;;;;;6273801;22;20205;-92
2021/07/11 09:04:46;;;;;;;2.90;1.75;;;18.80;93.00;;;;;;6276235;22;20176;-92
2021/07/11 09:07:18;;;;;;;2.15;1.60;;;18.70;91.70;;;;;;6275944;22;20714;-91
2021/07/11 09:09:44;;;;;;;3.00;1.65;;;18.90;92.40;;;;;;6277083;22;20161;-91
2021/07/11 09:12:13;;;;;;;2.17;1.98;;;18.70;92.30;;;;;;6277872;22;20272;-92
2021/07/11 09:14:43;;;;;;;2.00;1.77;;;18.60;92.30;;;;;;6279413;22;20181;-92
2021/07/11 09:17:12;;;;;;;1.70;1.60;;;18.90;92.40;;;;;;6283040;22;20224;-93
2021/07/11 09:19:41;;;;;;;2.30;1.90;;;19.10;92.40;;;;;;6279422;22;20307;-93
2021/07/11 09:22:10;;;;;;;2.97;1.58;;;19.50;90.10;;;;;;6258482;22;20196;-94
2021/07/11 09:24:38;;;;;;;1.92;1.63;;;19.90;87.80;;;;;;6284556;22;20272;-92
2021/07/11 09:27:08;;;;;;;2.00;1.80;;;20.20;86.20;;;;;;6275255;22;20267;-92
2021/07/11 09:29:36;;;;;;;1.90;1.80;;;20.60;83.70;;;;;;6274681;22;20256;-91
2021/07/11 09:32:07;;;;;;;1.90;1.80;;;21.70;81.30;;;;;;6279431;22;20250;-89
2021/07/11 09:34:40;;;;;;;1.88;1.73;;;23.80;64.70;;;;;;6283309;22;20172;-85
2021/07/11 09:37:12;;;;;;;1.83;1.70;;;25.40;51.20;;;;;;6280987;22;20279;-87
2021/07/11 09:39:52;;;;;;;2.20;2.00;;;27.70;39.90;;;;;;6281837;22;20219;-89
2021/07/11 09:42:30;;;;;;;2.00;1.90;;;30.40;29.40;;;;;;6279678;22;20635;-89
2021/07/11 09:44:59;;;;;;;2.22;2.13;;;31.50;25.00;;;;;;6279130;22;20236;-91
2021/07/11 09:52:42;;;;;;;2.45;2.10;;;31.50;24.30;;;;;;6248507;22;20505;-90
2021/07/11 09:55:12;;;;;;;2.30;2.10;;;29.60;26.70;;;;;;6278508;22;20248;-88
2021/07/11 09:57:43;;;;;;;2.72;2.22;;;27.80;32.30;;;;;;6278065;22;20548;-88
2021/07/11 10:00:23;;;;;;;2.22;2.03;;;27.50;32.00;;;;;;6278134;22;20719;-89
2021/07/11 10:02:51;;;;;;;1.95;1.85;;;26.10;35.60;;;;;;6276940;22;20279;-88
2021/07/11 10:05:21;;;;;;;2.80;2.42;;;26.60;37.20;;;;;;6277733;22;20565;-89
2021/07/11 10:07:50;;;;;;;15.80;14.30;;;26.50;33.90;;;;;;6275916;22;20227;-89
2021/07/11 10:10:18;;;;;;;6.35;5.20;;;25.00;39.30;;;;;;6278497;22;20200;-88
2021/07/11 10:12:47;;;;;;;10.38;9.43;;;25.00;38.80;;;;;;6278492;22;20234;-89
2021/07/11 10:18:49;;;;;;;2.40;2.00;;;24.50;46.10;;;;;;6276120;22;20183;-90
2021/07/11 10:21:36;;;;;;;2.10;2.00;;;23.70;46.60;;;;;;6278986;22;20184;-88
2021/07/11 10:41:59;;;;;;;2.25;2.05;;;22.10;56.20;;;;;;6279228;22;20195;-89
2021/07/11 10:44:28;;;;;;;2.80;2.33;;;23.30;53.90;;;;;;6276583;22;20169;-90
2021/07/11 10:46:56;;;;;;;6.50;5.85;;;23.50;48.30;;;;;;6277633;22;20196;-89
2021/07/11 11:00:30;;;;;;;2.88;2.58;;;21.50;56.90;;;;;;6221128;23;20220;-89
2021/07/11 11:06:40;;;;;;;4.32;2.63;;;20.60;68.60;;;;;;6225454;23;20208;-87
2021/07/11 11:09:07;;;;;;;4.72;2.55;;;20.30;72.90;;;;;;6219694;23;20181;-84
2021/07/11 11:11:33;;;;;;;4.50;2.20;;;20.40;75.10;;;;;;6198146;23;20185;-86
2021/07/11 11:14:05;;;;;;;3.17;2.05;;;20.50;74.70;;;;;;6235045;22;20197;-87
2021/07/11 11:20:09;;;;;;;1.98;1.75;;;21.40;65.30;;;;;;6224749;23;20185;-87
2021/07/11 11:22:36;;;;;;;2.05;1.95;;;22.00;57.70;;;;;;6221656;22;20249;-89
2021/07/11 11:25:03;;;;;;;4.25;2.05;;;22.40;58.10;;;;;;6226055;23;20676;-87
2021/07/11 11:27:36;;;;;;;2.45;2.25;;;21.70;57.50;;;;;;6224334;23;20666;-88
2021/07/11 11:30:14;;;;;;;5.47;4.97;;;21.80;57.60;;;;;;6223991;23;20170;-90
2021/07/11 11:33:26;;;;;;;6.13;5.55;;;21.50;57.30;;;;;;6220113;23;20285;-91
2021/07/11 11:36:30;;;;;;;2.83;2.10;;;21.50;59.90;;;;;;6225028;23;20166;-91
2021/07/11 11:39:00;;;;;;;2.25;2.05;;;21.30;59.40;;;;;;6228143;22;20174;-91
2021/07/11 11:42:04;;;;;;;3.28;2.40;;;21.40;57.20;;;;;;6219453;23;20210;-90
2021/07/11 11:44:31;;;;;;;2.45;1.90;;;21.30;57.10;;;;;;6219170;23;20493;-89
2021/07/11 11:47:00;;;;;;;2.80;2.15;;;21.30;57.10;;;;;;6220572;22;20205;-87
2021/07/11 11:49:28;;;;;;;4.22;2.00;;;21.50;59.40;;;;;;6251719;23;20229;-85
2021/07/11 11:51:58;;;;;;;2.53;2.33;;;21.50;57.30;;;;;;6252790;23;20162;-87
2021/07/11 11:54:27;;;;;;;2.28;2.08;;;21.30;57.10;;;;;;6255159;23;20280;-87
2021/07/11 11:56:55;;;;;;;2.50;2.30;;;21.40;57.30;;;;;;6252940;23;20275;-88
2021/07/11 11:59:22;;;;;;;3.00;2.35;;;22.50;58.20;;;;;;6251977;23;20236;-88
2021/07/11 12:01:56;;;;;;;2.40;2.20;;;23.00;51.40;;;;;;6249731;23;20188;-89
2021/07/11 12:04:24;;;;;;;3.05;2.85;;;23.40;49.50;;;;;;6251927;23;20275;-88
2021/07/11 12:06:52;;;;;;;2.30;2.10;;;22.50;53.70;;;;;;6253804;23;20208;-86
2021/07/11 12:09:24;;;;;;;2.10;1.90;;;22.20;55.40;;;;;;6253653;23;20181;-87
2021/07/11 12:11:57;;;;;;;2.10;1.90;;;22.50;56.10;;;;;;6253748;23;20193;-86
2021/07/11 12:14:37;;;;;;;2.20;2.05;;;21.70;54.60;;;;;;6227586;23;20183;-87
2021/07/11 12:17:08;;;;;;;3.50;2.00;;;21.60;57.40;;;;;;6255374;23;20227;-85
2021/07/11 12:19:45;;;;;;;1.70;1.60;;;21.20;61.30;;;;;;6255877;23;20162;-86
2021/07/11 12:22:41;;;;;;;2.25;2.05;;;21.30;57.10;;;;;;6255241;23;20207;-86
2021/07/11 12:25:14;;;;;;;2.00;1.88;;;21.30;57.20;;;;;;6257199;23;20174;-86
2021/07/11 12:27:43;;;;;;;2.40;2.20;;;21.80;57.60;;;;;;6249783;23;20224;-89
2021/07/11 12:30:14;;;;;;;2.28;2.08;;;21.90;57.60;;;;;;6256438;23;20161;-85
2021/07/11 12:32:46;;;;;;;2.55;1.90;;;21.70;57.50;;;;;;6254536;22;20177;-89
2021/07/11 12:35:14;;;;;;;2.22;2.03;;;21.00;60.00;;;;;;6249422;23;20184;-88
2021/07/11 12:37:56;;;;;;;2.70;2.45;;;21.20;57.00;;;;;;6250917;23;20169;-92
2021/07/11 12:40:27;;;;;;;2.90;1.90;;;20.80;62.40;;;;;;6251228;23;20232;-89
2021/07/11 12:43:28;;;;;;;2.63;2.17;;;20.60;64.40;;;;;;6190871;23;20250;-92
2021/07/11 12:46:01;;;;;;;3.35;3.05;;;20.50;65.30;;;;;;6238721;23;20215;-91
2021/07/11 12:48:36;;;;;;;4.00;2.47;;;20.20;66.30;;;;;;6251695;23;20224;-92
2021/07/11 12:51:21;;;;;;;1.70;1.60;;;20.00;66.60;;;;;;6251696;23;20200;-91
2021/07/11 12:53:51;;;;;;;2.58;1.75;;;19.90;69.40;;;;;;6253745;22;20252;-91
2021/07/11 13:03:58;;;;;;;2.10;2.00;;;20.00;76.20;;;;;;6198611;23;20179;-91
2021/07/11 13:09:49;;;;;;;2.63;1.50;;;20.30;80.20;;;;;;6186586;23;20249;-90
2021/07/11 13:12:17;;;;;;;2.35;2.15;;;20.30;76.80;;;;;;6195517;23;20176;-91
2021/07/11 13:19:07;;;;;;;3.25;2.35;;;20.60;81.20;;;;;;6054338;23;20178;-92
2021/07/11 13:21:41;;;;;;;2.13;1.90;;;20.60;78.90;;;;;;6040334;23;20198;-90
2021/07/11 13:28:18;;;;;;;3.38;1.90;;;20.70;78.90;;;;;;6044629;23;20166;-89
2021/07/11 13:31:37;;;;;;;3.55;2.15;;;21.00;72.30;;;;;;6070145;23;20169;-89
2021/07/11 13:44:43;;;;;;;1.95;1.75;;;21.90;63.80;;;;;;6067148;23;20169;-90
2021/07/11 13:47:10;;;;;;;2.40;2.20;;;21.90;62.10;;;;;;6063553;23;20201;-88
2021/07/11 13:49:37;;;;;;;2.35;2.13;;;21.70;65.30;;;;;;6241594;23;20176;-89
2021/07/11 13:52:05;;;;;;;2.55;2.10;;;21.10;67.30;;;;;;6243593;23;20574;-89
2021/07/11 13:54:32;;;;;;;2.33;2.10;;;20.70;75.30;;;;;;6242601;23;20272;-89
2021/07/11 13:56:59;;;;;;;3.15;2.30;;;20.50;77.10;;;;;;6243108;23;20260;-91
2021/07/11 13:59:26;;;;;;;2.53;2.33;;;20.80;74.60;;;;;;6241878;23;20306;-90
2021/07/11 14:01:54;;;;;;;3.67;2.63;;;20.80;75.80;;;;;;6242138;23;20221;-87
2021/07/11 14:04:21;;;;;;;2.47;2.28;;;20.70;75.90;;;;;;6240443;23;20213;-90
2021/07/11 14:06:48;;;;;;;2.55;2.35;;;20.90;72.30;;;;;;6239968;23;20257;-89
2021/07/11 14:09:15;;;;;;;2.65;2.33;;;20.90;72.10;;;;;;6239335;23;20211;-89
2021/07/11 14:11:42;;;;;;;2.40;2.20;;;21.30;68.30;;;;;;6238358;23;20173;-89
2021/07/11 14:14:09;;;;;;;2.78;2.33;;;21.40;70.40;;;;;;6237392;23;20307;-91
2021/07/11 14:16:36;;;;;;;2.63;2.42;;;21.20;66.70;;;;;;6239219;23;20456;-88
2021/07/11 14:19:04;;;;;;;2.05;1.95;;;21.70;62.60;;;;;;6240724;23;20316;-88
2021/07/11 14:21:31;;;;;;;13.77;12.50;;;21.90;58.90;;;;;;6240564;23;20516;-87
2021/07/11 14:23:58;;;;;;;3.83;2.85;;;21.90;60.30;;;;;;6241342;23;20288;-88
2021/07/11 14:26:25;;;;;;;1.98;1.88;;;21.90;63.70;;;;;;6241765;23;20177;-87
2021/07/11 14:28:51;;;;;;;3.88;3.60;;;22.00;58.00;;;;;;6242531;23;20276;-88
2021/07/11 14:31:18;;;;;;;2.72;2.40;;;21.90;57.60;;;;;;6242237;23;20259;-88
2021/07/11 14:33:45;;;;;;;4.80;4.40;;;21.80;57.60;;;;;;6242633;23;20225;-82
2021/07/11 14:36:13;;;;;;;2.53;2.33;;;21.90;57.60;;;;;;6252216;23;20223;-82
2021/07/11 14:38:40;;;;;;;2.03;1.90;;;21.90;54.50;;;;;;6245145;23;20271;-86
2021/07/11 14:41:08;;;;;;;1.63;1.52;;;22.10;55.90;;;;;;6246940;23;20232;-87
2021/07/11 14:43:35;;;;;;;2.00;1.85;;;22.10;53.30;;;;;;6245009;23;20700;-85
2021/07/11 14:46:02;;;;;;;5.00;4.60;;;22.10;53.40;;;;;;6246082;23;20204;-85
2021/07/11 14:48:29;;;;;;;2.60;2.40;;;22.20;54.10;;;;;;6245026;23;20212;-86
2021/07/11 14:50:56;;;;;;;2.25;2.05;;;21.90;54.20;;;;;;6243866;23;20640;-87
2021/07/11 14:53:25;;;;;;;4.38;3.97;;;21.80;52.20;;;;;;6243343;23;20221;-86
2021/07/11 14:55:53;;;;;;;2.10;1.90;;;22.00;53.80;;;;;;6244636;23;20605;-87
2021/07/11 14:58:20;;;;;;;2.47;2.28;;;22.20;51.10;;;;;;6244083;23;20209;-85
2021/07/11 15:00:48;;;;;;;2.42;2.17;;;22.30;51.40;;;;;;6247223;23;20224;-82
2021/07/11 15:03:15;;;;;;;1.80;1.70;;;22.30;49.30;;;;;;6250584;23;20229;-86
2021/07/11 15:05:42;;;;;;;3.90;3.60;;;22.50;47.90;;;;;;6249656;23;20256;-86
2021/07/11 15:08:09;;;;;;;1.70;1.60;;;22.40;46.90;;;;;;6247436;23;20272;-87
2021/07/11 15:10:37;;;;;;;11.70;10.70;;;22.40;46.50;;;;;;6242723;23;20252;-88
2021/07/11 15:13:06;;;;;;;25.98;23.35;;;22.10;48.70;;;;;;6245009;23;20200;-86
2021/07/11 15:15:33;;;;;;;1.80;1.70;;;22.00;49.40;;;;;;6244530;23;20490;-87
2021/07/11 15:18:04;;;;;;;1.65;1.55;;;21.80;50.80;;;;;;6245382;23;20279;-86
2021/07/11 15:20:31;;;;;;;2.15;1.95;;;21.30;49.30;;;;;;6246576;23;20241;-86
2021/07/11 15:22:58;;;;;;;1.90;1.80;;;21.20;52.70;;;;;;6246854;23;20228;-86
2021/07/11 15:25:25;;;;;;;5.32;4.82;;;21.10;54.60;;;;;;6245572;23;20256;-87
2021/07/11 15:28:16;;;;;;;1.70;1.60;;;21.10;56.90;;;;;;6247689;23;20201;-86
2021/07/11 15:30:43;;;;;;;2.75;2.10;;;21.40;57.20;;;;;;6248770;23;20237;-90
2021/07/11 15:33:15;;;;;;;2.33;2.13;;;21.60;57.40;;;;;;6248603;23;20247;-90
2021/07/11 15:35:44;;;;;;;3.03;2.13;;;21.60;58.50;;;;;;6255648;23;20163;-89
2021/07/11 15:38:12;;;;;;;2.33;2.10;;;21.40;57.20;;;;;;6252646;23;20215;-88
2021/07/11 15:40:40;;;;;;;3.05;2.20;;;21.20;58.80;;;;;;6254186;23;20173;-87
2021/07/11 15:43:08;;;;;;;2.45;2.10;;;21.10;60.50;;;;;;6253307;23;20227;-91
2021/07/11 15:45:36;;;;;;;2.30;2.10;;;21.20;63.50;;;;;;6253572;23;20173;-89
2021/07/11 15:48:04;;;;;;;2.78;2.10;;;21.00;63.60;;;;;;6252870;23;20232;-89
2021/07/11 15:50:32;;;;;;;3.30;2.40;;;20.80;65.60;;;;;;6252782;23;20165;-91